Time;durP1;ratioP1;P1;durP2;ratioP2;P2;SDS_P1;SDS_P2;PMS_P1;PMS_P2;Temp;Humidity;BMP_temperature;BMP_pressure;BME280_temperature;BME280_humidity;BME280_pressure;Samples;Min_cycle;Max_cycle;Signal;HPM_P1;HPM_P2
2023/12/15 00:01:03;;;;;;;6.00;4.60;;;;;;;21.05;37.41;100726.77;102815;1298;61398;-83
2023/12/15 00:03:28;;;;;;;6.80;4.90;;;;;;;21.04;37.38;100733.09;102393;1296;61436;-83
2023/12/15 00:05:54;;;;;;;6.80;4.70;;;;;;;21.03;37.33;100743.58;102758;1296;61448;-83
2023/12/15 00:08:20;;;;;;;6.50;4.80;;;;;;;21.02;37.37;100752.79;102704;1296;61320;-83
2023/12/15 00:10:46;;;;;;;5.90;4.70;;;;;;;21.01;37.41;100761.25;102719;1296;61288;-83
2023/12/15 00:13:11;;;;;;;7.20;4.50;;;;;;;20.99;37.43;100772.98;102719;1295;61400;-82
2023/12/15 00:15:37;;;;;;;6.90;5.10;;;;;;;20.98;37.47;100781.83;102577;1296;61324;-83
2023/12/15 00:18:03;;;;;;;6.80;4.70;;;;;;;20.98;37.47;100794.03;102608;1296;61378;-83
2023/12/15 00:20:28;;;;;;;7.80;5.10;;;;;;;20.97;37.38;100803.20;102695;1296;61532;-85
2023/12/15 00:22:54;;;;;;;6.80;4.70;;;;;;;20.96;37.50;100808.80;102806;1300;61424;-83
2023/12/15 00:25:20;;;;;;;6.70;5.00;;;;;;;20.96;37.51;100806.70;102767;1296;72480;-83
2023/12/15 00:27:46;;;;;;;6.30;4.70;;;;;;;20.95;37.55;100806.08;102697;1298;61487;-84
2023/12/15 00:30:12;;;;;;;6.70;4.60;;;;;;;20.94;37.43;100810.25;102689;1296;61515;-83
2023/12/15 00:32:38;;;;;;;5.90;4.50;;;;;;;20.93;37.49;100814.58;102735;1298;71148;-83
2023/12/15 00:35:04;;;;;;;6.10;4.50;;;;;;;20.92;37.51;100822.50;102663;1295;61339;-83
2023/12/15 00:37:30;;;;;;;6.60;4.80;;;;;;;20.91;37.55;100822.02;102641;1302;62035;-83
2023/12/15 00:39:56;;;;;;;6.20;4.30;;;;;;;20.91;37.43;100823.85;102934;1296;62053;-84
2023/12/15 00:42:21;;;;;;;6.80;4.40;;;;;;;20.90;37.53;100824.95;102597;1296;61889;-83
2023/12/15 00:44:47;;;;;;;5.90;4.40;;;;;;;20.90;37.58;100828.95;102821;1295;61407;-83
2023/12/15 00:47:14;;;;;;;7.60;4.90;;;;;;;20.89;37.56;100837.41;102818;1296;61473;-83
2023/12/15 00:49:40;;;;;;;6.80;4.60;;;;;;;20.87;37.58;100840.94;102808;1296;61349;-83
2023/12/15 00:52:06;;;;;;;5.90;4.40;;;;;;;20.88;37.51;100843.39;102653;1295;62964;-84
2023/12/15 00:54:32;;;;;;;5.70;4.30;;;;;;;20.88;37.64;100847.70;102759;1296;61302;-83
2023/12/15 00:56:58;;;;;;;6.20;4.50;;;;;;;20.87;37.56;100859.21;102751;1301;61416;-83
2023/12/15 00:59:23;;;;;;;6.30;4.40;;;;;;;20.87;37.58;100862.03;102744;1300;62094;-83
2023/12/15 01:01:49;;;;;;;6.70;4.40;;;;;;;20.88;37.47;100866.58;102930;1295;61394;-83
2023/12/15 01:04:15;;;;;;;7.50;4.80;;;;;;;20.91;37.48;100873.34;102828;1296;62025;-83
2023/12/15 01:06:40;;;;;;;6.10;4.30;;;;;;;20.92;37.53;100878.89;102820;1295;61403;-83
2023/12/15 01:09:06;;;;;;;6.10;4.30;;;;;;;20.94;37.44;100879.31;102841;1295;61413;-83
2023/12/15 01:11:31;;;;;;;6.20;4.30;;;;;;;20.96;37.44;100882.95;102844;1296;61397;-83
2023/12/15 01:13:57;;;;;;;5.40;4.20;;;;;;;20.98;37.52;100886.70;102791;1296;61406;-83
2023/12/15 01:16:23;;;;;;;6.00;4.40;;;;;;;21.01;37.38;100887.05;102704;1304;61382;-83
2023/12/15 01:18:48;;;;;;;5.70;4.40;;;;;;;21.02;37.25;100884.98;102592;1296;61469;-82
2023/12/15 01:21:14;;;;;;;6.70;4.60;;;;;;;21.04;37.32;100894.16;102787;1301;61394;-83
2023/12/15 01:23:40;;;;;;;7.30;4.30;;;;;;;21.05;37.31;100897.29;102951;1296;61397;-83
2023/12/15 01:26:05;;;;;;;5.40;4.20;;;;;;;21.07;37.37;100896.08;102671;1296;61390;-83
2023/12/15 01:28:31;;;;;;;6.60;4.30;;;;;;;21.09;37.29;100896.32;102839;1295;61392;-83
2023/12/15 01:31:01;;;;;;;7.40;4.40;;;;;;;21.11;37.27;100896.34;102696;1298;66370;-83
2023/12/15 01:33:28;;;;;;;6.60;4.40;;;;;;;21.13;37.28;100900.73;102773;1298;72566;-83
2023/12/15 01:35:54;;;;;;;5.80;4.70;;;;;;;21.14;37.25;100900.98;102826;1301;61337;-83
2023/12/15 01:38:20;;;;;;;5.40;4.30;;;;;;;21.16;37.20;100906.95;102800;1296;61407;-83
2023/12/15 01:40:45;;;;;;;5.90;3.90;;;;;;;21.18;37.22;100913.11;102860;1301;61333;-82
2023/12/15 01:43:11;;;;;;;6.00;4.30;;;;;;;21.19;37.18;100911.74;102703;1295;61346;-82
2023/12/15 01:45:37;;;;;;;5.90;4.30;;;;;;;21.20;37.10;100908.79;102613;1304;61368;-82
2023/12/15 01:48:02;;;;;;;6.20;4.40;;;;;;;21.22;37.15;100908.13;102691;1295;61390;-84
2023/12/15 01:50:28;;;;;;;7.00;4.20;;;;;;;21.23;37.13;100908.20;102872;1296;61408;-84
2023/12/15 01:52:54;;;;;;;6.80;4.20;;;;;;;21.25;37.03;100907.77;102661;1295;61410;-84
2023/12/15 01:55:19;;;;;;;5.70;4.20;;;;;;;21.25;37.17;100908.77;102669;1299;61980;-84
2023/12/15 01:57:45;;;;;;;6.10;4.10;;;;;;;21.27;36.92;100918.16;102726;1296;61473;-82
2023/12/15 02:00:11;;;;;;;5.50;3.90;;;;;;;21.28;36.95;100919.54;102792;1295;61878;-82
2023/12/15 02:02:37;;;;;;;5.60;4.20;;;;;;;21.29;37.00;100924.84;102719;1296;61355;-83
2023/12/15 02:05:03;;;;;;;5.80;4.40;;;;;;;21.30;36.95;100927.64;102842;1298;61308;-82
2023/12/15 02:07:29;;;;;;;6.40;4.10;;;;;;;21.31;37.08;100927.39;102564;1296;72666;-82
2023/12/15 02:09:55;;;;;;;6.40;4.40;;;;;;;21.32;36.98;100922.67;102730;1295;61912;-82
2023/12/15 02:12:22;;;;;;;5.60;4.00;;;;;;;21.32;37.05;100919.93;102704;1301;61333;-83
2023/12/15 02:14:47;;;;;;;5.70;4.00;;;;;;;21.34;37.01;100924.85;102716;1295;61295;-83
2023/12/15 02:17:13;;;;;;;6.40;4.00;;;;;;;21.34;36.84;100931.80;102762;1301;61368;-83
2023/12/15 02:19:40;;;;;;;5.90;4.00;;;;;;;21.35;36.84;100936.91;102704;1299;62446;-83
2023/12/15 02:22:05;;;;;;;6.30;4.20;;;;;;;21.36;36.86;100942.07;102737;1295;61467;-83
2023/12/15 02:24:31;;;;;;;5.50;3.90;;;;;;;21.37;36.91;100947.38;102734;1301;61354;-83
2023/12/15 02:26:57;;;;;;;5.30;4.00;;;;;;;21.37;36.83;100947.36;102797;1298;61310;-84
2023/12/15 02:29:23;;;;;;;7.80;3.80;;;;;;;21.38;36.83;100951.25;102635;1296;61374;-83
2023/12/15 02:31:48;;;;;;;5.80;4.30;;;;;;;21.38;36.78;100952.85;102745;1296;61365;-83
2023/12/15 02:34:14;;;;;;;5.90;4.20;;;;;;;21.38;36.80;100959.44;102527;1296;62146;-83
2023/12/15 02:36:40;;;;;;;5.30;4.00;;;;;;;21.39;36.83;100967.60;102789;1295;61849;-83
2023/12/15 02:39:06;;;;;;;5.40;3.80;;;;;;;21.39;36.82;100965.10;102663;1298;61300;-82
2023/12/15 02:41:31;;;;;;;5.40;3.90;;;;;;;21.39;36.75;100966.89;102753;1301;61367;-82
2023/12/15 02:43:57;;;;;;;6.20;3.90;;;;;;;21.40;36.70;100969.71;102747;1301;74484;-82
2023/12/15 02:46:23;;;;;;;5.50;3.90;;;;;;;21.40;36.56;100978.44;102700;1295;61252;-83
2023/12/15 02:48:48;;;;;;;4.90;3.70;;;;;;;21.41;36.73;100981.10;102919;1298;61321;-82
2023/12/15 02:51:30;;;;;;;5.40;4.20;;;;;;;21.41;36.67;100985.35;102725;1296;61461;-83
2023/12/15 02:54:00;;;;;;;5.50;3.90;;;;;;;21.41;36.62;100991.45;102674;1295;74482;-82
2023/12/15 02:56:26;;;;;;;5.00;3.60;;;;;;;21.41;36.82;101001.10;102860;1296;61352;-82
2023/12/15 02:58:52;;;;;;;5.30;3.70;;;;;;;21.41;36.65;101004.50;102584;1296;61417;-83
2023/12/15 03:01:17;;;;;;;6.00;3.80;;;;;;;21.42;36.75;101010.00;102820;1302;61413;-83
2023/12/15 03:03:43;;;;;;;6.30;3.80;;;;;;;21.43;36.58;101016.05;102734;1296;61435;-83
2023/12/15 03:06:09;;;;;;;5.40;3.60;;;;;;;21.43;36.54;101014.60;102798;1298;61885;-83
2023/12/15 03:08:34;;;;;;;4.70;3.60;;;;;;;21.44;36.65;101022.25;102818;1296;61477;-83
2023/12/15 03:11:01;;;;;;;5.00;3.60;;;;;;;21.44;36.60;101027.98;102809;1296;61441;-83
2023/12/15 03:13:30;;;;;;;5.50;3.60;;;;;;;21.44;36.60;101029.95;102662;1304;61420;-82
2023/12/15 03:16:09;;;;;;;;;;;;;;;21.45;36.57;101036.34;102820;1301;74594;-84
2023/12/15 03:18:35;;;;;;;5.80;3.70;;;;;;;21.42;36.68;101044.55;102849;1296;61384;-84
2023/12/15 03:21:00;;;;;;;4.40;3.50;;;;;;;21.43;36.67;101052.01;102795;1295;61383;-83
2023/12/15 03:23:26;;;;;;;5.20;3.80;;;;;;;21.44;36.38;101056.83;102837;1298;62713;-83
2023/12/15 03:25:52;;;;;;;5.90;3.20;;;;;;;21.44;36.52;101058.06;102749;1297;61387;-83
2023/12/15 03:28:17;;;;;;;5.10;3.20;;;;;;;21.44;36.51;101067.00;102888;1302;61534;-83
2023/12/15 03:30:43;;;;;;;5.00;3.60;;;;;;;21.45;36.51;101069.82;102817;1296;62085;-83
2023/12/15 03:33:08;;;;;;;5.40;3.70;;;;;;;21.45;36.51;101073.05;102838;1298;61182;-83
2023/12/15 03:35:35;;;;;;;4.80;3.10;;;;;;;21.45;36.52;101075.38;102836;1299;61425;-83
2023/12/15 03:38:03;;;;;;;5.10;3.50;;;;;;;21.45;36.41;101087.34;102905;1298;61428;-83
2023/12/15 03:40:29;;;;;;;4.90;3.30;;;;;;;21.46;36.39;101085.14;102827;1296;61317;-83
2023/12/15 03:43:03;;;;;;;4.70;3.40;;;;;;;21.47;36.37;101092.27;102854;1295;61397;-83
2023/12/15 03:45:28;;;;;;;5.50;3.50;;;;;;;21.46;36.31;101099.45;102887;1296;61400;-84
2023/12/15 03:47:54;;;;;;;4.60;3.30;;;;;;;21.47;36.29;101101.41;102849;1301;61816;-83
2023/12/15 03:50:20;;;;;;;5.60;3.40;;;;;;;21.47;36.42;101103.68;102880;1301;61505;-84
2023/12/15 03:52:45;;;;;;;5.10;3.20;;;;;;;21.47;36.48;101099.04;102739;1296;62475;-83
2023/12/15 03:55:11;;;;;;;5.10;3.10;;;;;;;21.48;36.33;101103.46;102972;1295;61392;-83
2023/12/15 03:57:36;;;;;;;4.60;3.20;;;;;;;21.48;36.24;101108.31;102668;1299;61316;-83
2023/12/15 04:00:03;;;;;;;4.80;3.40;;;;;;;21.48;36.26;101105.08;102702;1298;61474;-83
2023/12/15 04:02:28;;;;;;;4.60;3.10;;;;;;;21.48;36.26;101109.16;102669;1296;61337;-83
2023/12/15 04:04:55;;;;;;;4.80;3.00;;;;;;;21.48;36.23;101114.71;102847;1295;61498;-83
2023/12/15 04:07:20;;;;;;;5.00;3.20;;;;;;;21.49;36.31;101112.17;102761;1295;61313;-84
2023/12/15 04:09:46;;;;;;;5.60;3.30;;;;;;;21.49;36.21;101116.28;102901;1301;61365;-83
2023/12/15 04:12:11;;;;;;;8.00;3.40;;;;;;;21.49;36.20;101128.81;102897;1301;74463;-83
2023/12/15 04:14:37;;;;;;;4.90;3.20;;;;;;;21.49;36.20;101133.66;102825;1301;61399;-83
2023/12/15 04:17:03;;;;;;;4.10;2.80;;;;;;;21.49;36.14;101136.50;102777;1294;61426;-83
2023/12/15 04:19:28;;;;;;;4.50;3.10;;;;;;;21.49;36.22;101137.91;102731;1296;61672;-84
2023/12/15 04:21:55;;;;;;;4.50;3.00;;;;;;;21.49;36.15;101142.41;102809;1304;61430;-84
2023/12/15 04:24:20;;;;;;;4.30;3.10;;;;;;;21.50;36.16;101151.87;102893;1299;61514;-82
2023/12/15 04:26:46;;;;;;;4.80;3.00;;;;;;;21.50;36.31;101155.25;102800;1296;61333;-82
2023/12/15 04:29:11;;;;;;;4.70;3.10;;;;;;;21.50;36.22;101159.90;102731;1296;61380;-82
2023/12/15 04:31:37;;;;;;;4.30;2.90;;;;;;;21.49;36.05;101158.68;102775;1300;61837;-83
2023/12/15 04:34:02;;;;;;;6.00;3.20;;;;;;;21.50;35.99;101159.16;102727;1299;61313;-83
2023/12/15 04:36:28;;;;;;;4.30;3.10;;;;;;;21.50;36.17;101165.48;102762;1302;61457;-82
2023/12/15 04:38:54;;;;;;;5.00;3.10;;;;;;;21.50;36.06;101176.17;102834;1298;62668;-82
2023/12/15 04:41:23;;;;;;;4.40;3.00;;;;;;;21.50;36.00;101177.63;102676;1299;61513;-82
2023/12/15 04:43:49;;;;;;;;;;;;;;;21.50;35.90;101180.48;102801;1300;71673;-82
2023/12/15 04:46:25;;;;;;;4.80;2.50;;;;;;;21.47;35.98;101185.16;102799;1300;61320;-82
2023/12/15 04:48:50;;;;;;;4.90;3.30;;;;;;;21.48;35.93;101187.81;102867;1296;61320;-83
2023/12/15 04:51:16;;;;;;;4.50;3.10;;;;;;;21.48;35.93;101190.52;102764;1301;61430;-83
2023/12/15 04:53:43;;;;;;;5.70;3.20;;;;;;;21.48;35.91;101196.61;102753;1296;61471;-83
2023/12/15 04:56:08;;;;;;;6.30;3.50;;;;;;;21.47;35.81;101209.70;102601;1302;61484;-84
2023/12/15 04:58:36;;;;;;;5.20;3.40;;;;;;;21.46;35.67;101218.34;102849;1299;61397;-84
2023/12/15 05:01:02;;;;;;;4.60;3.10;;;;;;;21.46;35.62;101220.16;102811;1298;61342;-84
2023/12/15 05:03:28;;;;;;;5.50;3.40;;;;;;;21.46;35.56;101228.08;102801;1296;61483;-84
2023/12/15 05:05:54;;;;;;;5.10;3.10;;;;;;;21.46;35.48;101228.61;102999;1296;61349;-84
2023/12/15 05:08:19;;;;;;;4.80;3.20;;;;;;;21.44;35.39;101232.43;103000;1301;61470;-83
2023/12/15 05:10:45;;;;;;;6.00;3.50;;;;;;;21.44;35.29;101239.27;103090;1301;61316;-83
2023/12/15 05:13:11;;;;;;;4.90;3.40;;;;;;;21.44;35.28;101250.02;103132;1297;61499;-80
2023/12/15 05:15:37;;;;;;;5.00;3.20;;;;;;;21.43;35.10;101255.59;103028;1296;61402;-83
2023/12/15 05:18:03;;;;;;;5.10;3.40;;;;;;;21.43;34.94;101259.02;103068;1298;61430;-82
2023/12/15 05:20:29;;;;;;;5.20;3.10;;;;;;;21.43;34.98;101260.84;103075;1296;61695;-81
2023/12/15 05:22:54;;;;;;;5.90;3.20;;;;;;;21.43;34.87;101268.50;102988;1298;61391;-81
2023/12/15 05:25:20;;;;;;;5.60;3.40;;;;;;;21.42;34.84;101266.02;102904;1301;61384;-83
2023/12/15 05:27:45;;;;;;;5.60;3.10;;;;;;;21.43;34.91;101270.85;102884;1301;61425;-82
2023/12/15 05:30:14;;;;;;;5.80;3.20;;;;;;;21.43;34.69;101283.02;102905;1296;61412;-82
2023/12/15 05:32:40;;;;;;;5.10;3.30;;;;;;;21.41;34.75;101285.62;102917;1298;61279;-83
2023/12/15 05:35:06;;;;;;;4.60;3.20;;;;;;;21.39;34.74;101280.05;103262;1296;61324;-82
2023/12/15 05:37:31;;;;;;;5.70;3.30;;;;;;;21.37;34.47;101286.46;103332;1296;61298;-83
2023/12/15 05:39:57;;;;;;;4.90;3.10;;;;;;;21.34;34.66;101285.02;103358;1301;61401;-82
2023/12/15 05:42:24;;;;;;;5.10;3.80;;;;;;;21.31;34.78;101287.17;103506;1295;61491;-83
2023/12/15 05:44:50;;;;;;;8.20;3.40;;;;;;;21.27;34.77;101291.05;103505;1296;61341;-82
2023/12/15 05:47:16;;;;;;;8.40;3.50;;;;;;;21.23;34.66;101300.59;103404;1302;61467;-83
2023/12/15 05:49:42;;;;;;;6.90;3.60;;;;;;;21.18;34.77;101301.97;103906;1296;61318;-83
2023/12/15 05:52:11;;;;;;;5.60;3.90;;;;;;;21.14;34.76;101310.83;103857;1300;61417;-81
2023/12/15 05:54:40;;;;;;;7.10;4.00;;;;;;;21.10;34.53;101308.02;103542;1297;61414;-82
2023/12/15 05:57:05;;;;;;;8.60;4.00;;;;;;;21.05;34.55;101313.17;103694;1295;61332;-82
2023/12/15 05:59:31;;;;;;;7.30;3.70;;;;;;;21.00;34.60;101322.27;103779;1299;62121;-82
2023/12/15 06:01:57;;;;;;;9.10;4.90;;;;;;;20.97;34.46;101329.96;103819;1295;61435;-80
2023/12/15 06:04:23;;;;;;;5.50;4.10;;;;;;;20.93;34.49;101333.79;104021;1296;61361;-80
2023/12/15 06:06:48;;;;;;;9.40;4.00;;;;;;;20.87;34.41;101336.11;104037;1294;61390;-81
2023/12/15 06:09:14;;;;;;;7.20;3.70;;;;;;;20.83;34.45;101338.19;104709;1296;59487;-81
2023/12/15 06:11:41;;;;;;;6.80;4.30;;;;;;;20.81;34.47;101336.67;104742;1295;72833;-82
2023/12/15 06:14:06;;;;;;;10.00;4.30;;;;;;;20.79;34.54;101346.61;104802;1293;75474;-80
2023/12/15 06:16:32;;;;;;;6.90;4.10;;;;;;;20.79;34.58;101346.12;104502;1293;59172;-81
2023/12/15 06:18:58;;;;;;;7.70;3.90;;;;;;;20.78;34.55;101345.98;104771;1296;59035;-81
2023/12/15 06:21:24;;;;;;;7.50;4.80;;;;;;;20.79;34.41;101346.48;104720;1299;59170;-82
2023/12/15 06:23:50;;;;;;;7.90;4.20;;;;;;;20.79;34.48;101350.23;104630;1298;61368;-82
2023/12/15 06:26:20;;;;;;;6.40;4.10;;;;;;;20.79;34.41;101349.34;104364;1296;59498;-81
2023/12/15 06:28:45;;;;;;;;;;;;;;;20.79;34.19;101350.55;104640;1295;60220;-81
2023/12/15 06:31:11;;;;;;;5.90;4.00;;;;;;;20.76;34.26;101354.70;104606;1296;61470;-81
2023/12/15 06:33:37;;;;;;;7.30;3.80;;;;;;;20.76;34.24;101368.08;104372;1301;59218;-81
2023/12/15 06:36:03;;;;;;;7.50;4.00;;;;;;;20.76;34.17;101372.54;104668;1295;61426;-82
2023/12/15 06:38:28;;;;;;;7.50;4.30;;;;;;;20.76;33.89;101374.90;104408;1295;61333;-81
2023/12/15 06:40:54;;;;;;;7.20;4.00;;;;;;;20.74;33.89;101380.35;104827;1299;61500;-82
2023/12/15 06:43:19;;;;;;;7.70;3.90;;;;;;;20.74;33.78;101382.37;104671;1296;72690;-80
2023/12/15 06:45:45;;;;;;;6.30;3.90;;;;;;;20.74;33.57;101384.31;104661;1298;60101;-81
2023/12/15 06:48:11;;;;;;;8.70;4.00;;;;;;;20.74;33.59;101386.50;104622;1295;61329;-81
2023/12/15 06:50:36;;;;;;;11.20;4.20;;;;;;;20.73;33.60;101390.81;104800;1296;61489;-81
2023/12/15 06:53:02;;;;;;;7.80;3.80;;;;;;;20.72;33.65;101399.47;104633;1296;61401;-80
2023/12/15 06:55:27;;;;;;;8.50;4.60;;;;;;;20.69;33.62;101406.06;103954;1295;72338;-80
2023/12/15 06:57:53;;;;;;;6.90;4.20;;;;;;;20.65;33.71;101413.61;103782;1300;61403;-81
2023/12/15 07:00:19;;;;;;;13.80;5.30;;;;;;;20.61;33.92;101412.45;103996;1295;61294;-82
2023/12/15 07:02:44;;;;;;;13.80;4.40;;;;;;;20.58;34.07;101415.65;103904;1296;61352;-81
2023/12/15 07:05:10;;;;;;;7.50;4.50;;;;;;;20.56;34.39;101423.45;103730;1296;61498;-82
2023/12/15 07:07:36;;;;;;;10.00;4.40;;;;;;;20.57;34.44;101432.34;103916;1294;72404;-82
2023/12/15 07:10:03;;;;;;;12.40;4.50;;;;;;;20.58;34.32;101434.39;103862;1293;61364;-82
2023/12/15 07:12:29;;;;;;;13.00;3.90;;;;;;;20.62;34.57;101431.33;103664;1301;61278;-82
2023/12/15 07:14:55;;;;;;;7.50;4.00;;;;;;;20.66;34.52;101431.49;103455;1296;61430;-80
2023/12/15 07:17:20;;;;;;;10.60;4.30;;;;;;;20.69;34.56;101435.59;103453;1296;61355;-80
2023/12/15 07:19:46;;;;;;;9.00;4.00;;;;;;;20.73;34.62;101447.36;103398;1298;61406;-81
2023/12/15 07:22:13;;;;;;;8.10;4.00;;;;;;;20.76;34.62;101448.05;103460;1296;61415;-81
2023/12/15 07:24:42;;;;;;;7.40;3.50;;;;;;;20.80;34.75;101453.05;103554;1294;61438;-81
2023/12/15 07:27:08;;;;;;;11.90;3.80;;;;;;;20.84;35.03;101458.30;103209;1299;72291;-79
2023/12/15 07:29:33;;;;;;;19.20;4.40;;;;;;;20.88;34.93;101467.95;103372;1295;61374;-81
2023/12/15 07:31:59;;;;;;;15.70;4.60;;;;;;;20.91;35.12;101472.75;103426;1296;62323;-83
2023/12/15 07:34:24;;;;;;;10.10;4.40;;;;;;;20.93;35.36;101475.46;103722;1299;60247;-80
2023/12/15 07:36:50;;;;;;;9.40;3.90;;;;;;;20.96;35.43;101477.85;103364;1298;712697;-80
2023/12/15 07:39:21;;;;;;;10.40;4.10;;;;;;;20.98;35.56;101480.36;103790;1295;71076;-80
2023/12/15 07:41:50;;;;;;;13.20;3.40;;;;;;;21.01;35.58;101484.33;103627;1295;75159;-81
2023/12/15 07:44:15;;;;;;;8.00;3.50;;;;;;;21.03;35.83;101488.69;103584;1295;62098;-79
2023/12/15 07:46:44;;;;;;;8.30;3.50;;;;;;;21.05;35.81;101484.64;103485;1295;62126;-80
2023/12/15 07:49:10;;;;;;;10.50;3.80;;;;;;;21.06;35.82;101488.65;103581;1295;72611;-79
2023/12/15 07:51:35;;;;;;;13.80;3.70;;;;;;;21.09;36.14;101499.61;103444;1296;62147;-82
2023/12/15 07:54:01;;;;;;;15.40;4.20;;;;;;;21.11;36.16;101502.91;103814;1296;62315;-81
2023/12/15 07:56:27;;;;;;;11.50;4.20;;;;;;;21.11;36.35;101501.98;103412;1296;62219;-81
2023/12/15 07:58:54;;;;;;;16.00;4.10;;;;;;;21.12;36.64;101503.89;105098;1295;61970;-81
2023/12/15 08:01:21;;;;;;;14.70;4.00;;;;;;;21.14;36.65;101509.35;103891;1296;62009;-82
2023/12/15 08:03:46;;;;;;;13.00;4.70;;;;;;;21.15;36.71;101515.38;104039;1294;60603;-82
2023/12/15 08:06:13;;;;;;;10.40;4.40;;;;;;;21.15;36.78;101517.48;103821;1296;62197;-81
2023/12/15 08:08:47;;;;;;;10.60;4.00;;;;;;;21.15;36.62;101522.52;103723;1294;62202;-85
2023/12/15 08:11:13;;;;;;;17.40;4.20;;;;;;;21.16;36.69;101526.94;103795;1296;75372;-80
2023/12/15 08:13:39;;;;;;;19.70;4.00;;;;;;;21.17;36.65;101534.58;103658;1299;62284;-82
2023/12/15 08:16:06;;;;;;;19.00;4.40;;;;;;;21.18;36.80;101536.30;103714;1296;60899;-82
2023/12/15 08:18:32;;;;;;;26.50;5.00;;;;;;;21.18;36.94;101538.40;104160;1296;62133;-82
2023/12/15 08:20:58;;;;;;;17.40;4.10;;;;;;;21.20;37.15;101542.26;103608;1299;62219;-83
2023/12/15 08:23:24;;;;;;;8.80;3.60;;;;;;;21.21;37.01;101540.91;103701;1296;62166;-82
2023/12/15 08:25:49;;;;;;;13.10;3.80;;;;;;;21.23;37.25;101547.25;103725;1294;62193;-83
2023/12/15 08:28:15;;;;;;;11.10;3.70;;;;;;;21.23;37.21;101544.20;103804;1299;61077;-82
2023/12/15 08:30:41;;;;;;;10.90;3.70;;;;;;;21.25;37.22;101546.97;103588;1298;72573;-81
2023/12/15 08:33:07;;;;;;;8.40;3.90;;;;;;;21.25;37.20;101547.48;103683;1298;62117;-81
2023/12/15 08:35:32;;;;;;;12.90;3.60;;;;;;;21.27;37.35;101546.66;104033;1295;62091;-80
2023/12/15 08:37:58;;;;;;;11.00;3.90;;;;;;;21.28;37.23;101549.85;103982;1294;62207;-81
2023/12/15 08:40:24;;;;;;;10.30;4.20;;;;;;;21.29;37.21;101552.27;103822;1298;62024;-80
2023/12/15 08:42:50;;;;;;;10.00;4.20;;;;;;;21.30;37.42;101563.34;103423;1296;62114;-80
2023/12/15 08:45:15;;;;;;;10.40;4.10;;;;;;;21.30;37.29;101568.14;103843;1293;62030;-83
2023/12/15 08:47:41;;;;;;;16.60;4.10;;;;;;;21.30;37.13;101573.39;103824;1295;62097;-84
2023/12/15 08:50:07;;;;;;;10.20;4.30;;;;;;;21.27;36.99;101570.82;103720;1296;62316;-84
2023/12/15 08:52:32;;;;;;;9.70;4.40;;;;;;;21.24;36.89;101575.29;104405;1298;60750;-81
2023/12/15 08:54:58;;;;;;;10.60;4.30;;;;;;;21.18;36.57;101578.18;104480;1293;61520;-81
2023/12/15 08:57:24;;;;;;;23.00;4.50;;;;;;;21.14;36.33;101575.89;104137;1295;62213;-80
2023/12/15 08:59:49;;;;;;;12.90;5.50;;;;;;;21.09;36.15;101582.29;104047;1294;62190;-81
2023/12/15 09:02:15;;;;;;;14.10;4.80;;;;;;;20.96;35.96;101581.95;104033;1296;62190;-80
2023/12/15 09:04:40;;;;;;;16.50;4.50;;;;;;;20.84;36.04;101578.38;103676;1296;59852;-81
2023/12/15 09:07:07;;;;;;;9.30;4.60;;;;;;;20.82;36.01;101577.23;104529;1296;62234;-82
2023/12/15 09:09:37;;;;;;;20.80;4.30;;;;;;;20.80;36.05;101579.33;104731;1294;60145;-82
2023/12/15 09:12:03;;;;;;;12.00;4.50;;;;;;;20.78;36.09;101579.23;104797;1295;60173;-83
2023/12/15 09:14:30;;;;;;;8.00;4.00;;;;;;;20.76;36.04;101579.55;104914;1296;62520;-81
2023/12/15 09:16:56;;;;;;;12.00;5.00;;;;;;;20.74;35.98;101578.08;104607;1296;62115;-80
2023/12/15 09:19:22;;;;;;;7.20;4.30;;;;;;;20.72;36.00;101572.29;104543;1295;62081;-81
2023/12/15 09:21:48;;;;;;;7.40;4.30;;;;;;;20.69;35.82;101569.55;104284;1295;60735;-81
2023/12/15 09:24:14;;;;;;;11.90;4.20;;;;;;;20.68;35.64;101569.60;104121;1296;62266;-82
2023/12/15 09:26:42;;;;;;;13.40;3.90;;;;;;;20.67;35.70;101570.18;103924;1297;62123;-82
2023/12/15 09:29:12;;;;;;;11.70;3.70;;;;;;;20.67;35.88;101569.84;103853;1298;62209;-82
2023/12/15 09:31:37;;;;;;;12.00;4.00;;;;;;;20.66;35.71;101568.48;103970;1298;62176;-82
2023/12/15 09:34:03;;;;;;;7.60;4.00;;;;;;;20.65;35.87;101572.80;103770;1298;62395;-83
2023/12/15 09:36:29;;;;;;;8.00;3.70;;;;;;;20.66;35.74;101575.08;103961;1297;62218;-82
2023/12/15 09:38:54;;;;;;;10.20;3.40;;;;;;;20.66;35.79;101575.98;103910;1296;62161;-82
2023/12/15 09:41:20;;;;;;;8.90;3.50;;;;;;;20.66;35.65;101574.76;103877;1302;62196;-80
2023/12/15 09:43:46;;;;;;;10.00;3.50;;;;;;;20.66;35.76;101574.02;103664;1302;62253;-81
2023/12/15 09:46:11;;;;;;;8.60;4.00;;;;;;;20.65;35.73;101574.05;103775;1299;72211;-81
2023/12/15 09:48:38;;;;;;;6.30;4.00;;;;;;;20.65;35.83;101569.08;103936;1300;62207;-82
2023/12/15 09:51:22;;;;;;;;;;;;;;;;;;;;;
2023/12/15 09:53:48;;;;;;;9.30;4.40;;;;;;;20.60;35.79;101580.58;104340;1299;62148;-86
2023/12/15 09:56:13;;;;;;;22.00;5.30;;;;;;;20.50;35.41;101582.41;104507;1299;62219;-81
2023/12/15 09:58:39;;;;;;;13.80;4.90;;;;;;;20.30;35.33;101590.51;104788;1298;59874;-82
2023/12/15 10:01:05;;;;;;;17.10;6.30;;;;;;;20.04;35.23;101598.91;104948;1295;59920;-83
2023/12/15 10:03:31;;;;;;;20.20;5.70;;;;;;;19.75;35.27;101611.32;105081;1295;60986;-82
2023/12/15 10:05:57;;;;;;;10.00;4.80;;;;;;;19.54;35.38;101620.61;104962;1295;60399;-82
2023/12/15 10:11:19;;;;;;;12.00;5.50;;;;;;;18.90;34.93;101646.45;105239;1292;61993;-82
2023/12/15 10:13:45;;;;;;;11.90;5.60;;;;;;;18.84;35.44;101657.59;105263;1291;59986;-81
2023/12/15 10:16:10;;;;;;;18.30;5.90;;;;;;;18.93;35.69;101661.81;105463;1296;62079;-83
2023/12/15 10:18:39;;;;;;;15.40;5.20;;;;;;;19.05;35.58;101663.02;105550;1296;61377;-83
2023/12/15 10:21:06;;;;;;;21.00;5.20;;;;;;;19.18;35.94;101669.54;105788;1291;62006;-82
2023/12/15 10:23:32;;;;;;;20.70;5.40;;;;;;;19.31;36.53;101673.89;105577;1293;59976;-81
2023/12/15 10:26:03;;;;;;;19.00;5.10;;;;;;;19.43;37.00;101680.98;105625;1293;61970;-81
2023/12/15 10:28:39;;;;;;;16.40;5.80;;;;;;;19.53;37.23;101682.59;105624;1292;75251;-81
2023/12/15 10:31:07;;;;;;;11.00;4.90;;;;;;;19.62;37.19;101681.64;105151;1291;59904;-80
2023/12/15 10:33:33;;;;;;;13.10;5.40;;;;;;;19.68;37.07;101683.80;105646;1292;60096;-80
2023/12/15 10:36:00;;;;;;;10.70;5.30;;;;;;;19.71;36.81;101681.31;105427;1291;60031;-81
2023/12/15 10:38:28;;;;;;;10.80;4.80;;;;;;;19.71;36.57;101685.06;104821;1293;74269;-80
2023/12/15 10:40:53;;;;;;;11.00;5.00;;;;;;;19.73;36.48;101691.58;104171;1298;60290;-81
2023/12/15 10:43:20;;;;;;;15.20;4.80;;;;;;;19.78;36.30;101692.77;104491;1293;59509;-80
2023/12/15 10:45:46;;;;;;;13.60;4.80;;;;;;;19.82;36.26;101698.27;104141;1291;62013;-80
2023/12/15 10:48:12;;;;;;;11.80;5.10;;;;;;;19.86;36.07;101704.33;104380;1296;62193;-80
2023/12/15 10:50:41;;;;;;;11.90;4.30;;;;;;;19.91;36.16;101704.45;104606;1293;62200;-82
2023/12/15 10:53:07;;;;;;;9.00;4.30;;;;;;;19.95;36.00;101704.62;104410;1292;62196;-81
2023/12/15 10:55:32;;;;;;;15.50;4.70;;;;;;;19.97;36.00;101707.16;103990;1294;62131;-80
2023/12/15 10:58:00;;;;;;;13.60;4.40;;;;;;;19.99;35.91;101706.16;104371;1293;60357;-81
2023/12/15 11:00:26;;;;;;;9.10;4.50;;;;;;;20.00;35.96;101710.05;104483;1298;62236;-81
2023/12/15 11:02:52;;;;;;;12.60;5.50;;;;;;;19.97;35.71;101710.20;104675;1299;59823;-81
2023/12/15 11:05:18;;;;;;;14.80;5.00;;;;;;;19.57;35.21;101706.67;104498;1298;62145;-81
2023/12/15 11:07:43;;;;;;;10.20;4.60;;;;;;;19.28;35.20;101703.12;104933;1294;61399;-81
2023/12/15 11:10:09;;;;;;;9.10;4.80;;;;;;;19.12;35.38;101702.84;104828;1294;62213;-81
2023/12/15 11:12:39;;;;;;;7.30;4.60;;;;;;;19.07;35.40;101706.29;105032;1293;60476;-81
2023/12/15 11:15:10;;;;;;;7.90;4.40;;;;;;;19.06;35.61;101707.60;105054;1293;62210;-81